createdAt,value
2018-03-03T00:01:57.790Z,109.32
2018-03-03T00:04:24.387Z,102.18
2018-03-03T00:09:51.222Z,112.95
2018-03-03T00:12:17.511Z,112.28
2018-03-03T00:14:43.814Z,106.30
2018-03-03T00:17:10.110Z,98.55
2018-03-03T00:19:36.383Z,99.50
2018-03-03T00:22:02.668Z,101.07
2018-03-03T00:24:29.022Z,105.53
2018-03-03T00:26:55.331Z,98.60
2018-03-03T00:29:21.590Z,89.90
2018-03-03T00:31:47.891Z,94.68
2018-03-03T00:34:14.182Z,105.35
2018-03-03T00:36:40.482Z,97.12
2018-03-03T00:39:06.758Z,98.80
2018-03-03T00:41:33.802Z,98.60
2018-03-03T00:44:00.823Z,104.45
2018-03-03T00:46:27.346Z,98.93
2018-03-03T00:48:53.622Z,97.18
2018-03-03T00:51:20.642Z,105.18
2018-03-03T00:53:46.938Z,94.62
2018-03-03T00:56:13.262Z,103.38
2018-03-03T00:58:39.578Z,103.75
2018-03-03T01:01:05.846Z,103.78
2018-03-03T01:03:32.131Z,94.07
2018-03-03T01:05:58.413Z,88.43
2018-03-03T01:08:25.734Z,94.25
2018-03-03T01:10:52.052Z,89.60
2018-03-03T01:13:18.322Z,103.22
2018-03-03T01:15:44.598Z,106.90
2018-03-03T01:18:11.619Z,92.28
2018-03-03T01:20:37.922Z,104.25
2018-03-03T01:23:05.235Z,99.53
2018-03-03T01:25:31.550Z,102.05
2018-03-03T01:27:58.570Z,95.30
2018-03-03T01:30:25.295Z,92.07
2018-03-03T01:32:51.567Z,98.40
2018-03-03T01:35:19.747Z,88.28
2018-03-03T01:37:46.183Z,101.05
2018-03-03T01:40:12.563Z,97.00
2018-03-03T01:42:38.923Z,105.22
2018-03-03T01:45:06.043Z,106.80
2018-03-03T01:47:32.416Z,95.57
2018-03-03T01:49:58.882Z,76.87
2018-03-03T01:52:26.243Z,95.70
2018-03-03T01:54:52.646Z,94.93
2018-03-03T01:57:19.009Z,90.53
2018-03-03T01:59:45.542Z,110.80
2018-03-03T02:02:11.927Z,106.32
2018-03-03T02:04:39.056Z,111.30
2018-03-03T02:07:05.560Z,110.12
2018-03-03T02:09:31.933Z,108.03
2018-03-03T02:11:59.111Z,112.15
2018-03-03T02:14:25.507Z,99.03
2018-03-03T02:16:51.911Z,113.43
2018-03-03T02:19:18.340Z,111.25
2018-03-03T02:21:44.707Z,112.30
2018-03-03T02:24:11.079Z,117.75
2018-03-03T02:26:37.507Z,121.87
2018-03-03T02:29:03.866Z,122.78
2018-03-03T02:31:30.298Z,107.43
2018-03-03T02:33:56.729Z,114.72
2018-03-03T02:36:23.141Z,105.87
2018-03-03T02:38:50.127Z,104.40
2018-03-03T02:41:16.516Z,115.35
2018-03-03T02:43:42.876Z,111.78
2018-03-03T02:46:09.290Z,112.43
2018-03-03T02:48:35.656Z,130.18
2018-03-03T02:51:02.073Z,122.62
2018-03-03T02:53:28.451Z,127.93
2018-03-03T02:55:55.571Z,121.35
2018-03-03T02:58:22.548Z,112.85
2018-03-03T03:00:49.687Z,108.35
2018-03-03T03:03:16.832Z,110.07
2018-03-03T03:05:43.234Z,118.32
2018-03-03T03:08:09.638Z,114.03
2018-03-03T03:10:35.995Z,102.03
2018-03-03T03:13:02.368Z,127.57
2018-03-03T03:15:29.507Z,131.37
2018-03-03T03:17:56.815Z,132.98
2018-03-03T03:20:23.234Z,126.68
2018-03-03T03:22:49.594Z,130.00
2018-03-03T03:25:15.958Z,126.32
2018-03-03T03:27:42.363Z,146.52
2018-03-03T03:30:08.755Z,143.23
2018-03-03T03:32:35.163Z,132.35
2018-03-03T03:35:01.632Z,140.95
2018-03-03T03:37:29.618Z,135.43
2018-03-03T03:39:55.996Z,123.03
2018-03-03T03:42:22.375Z,142.27
2018-03-03T03:44:48.755Z,107.12
2018-03-03T03:47:15.149Z,119.50
2018-03-03T03:49:41.532Z,117.60
2018-03-03T03:52:08.651Z,117.10
2018-03-03T03:54:35.489Z,123.72
2018-03-03T03:57:02.484Z,118.90
2018-03-03T03:59:28.872Z,129.50
2018-03-03T04:01:55.250Z,116.65
2018-03-03T04:04:22.355Z,103.25
2018-03-03T04:06:48.711Z,109.97
2018-03-03T04:09:15.807Z,113.35
2018-03-03T04:11:43.273Z,117.75
2018-03-03T04:14:09.707Z,135.73
2018-03-03T04:16:36.765Z,141.55
2018-03-03T04:19:03.123Z,116.18
2018-03-03T04:21:29.682Z,131.87
2018-03-03T04:23:56.803Z,131.85
2018-03-03T04:26:23.203Z,146.23
2018-03-03T04:28:49.619Z,142.37
2018-03-03T04:31:16.026Z,142.43
2018-03-03T04:33:43.464Z,159.37
2018-03-03T04:36:10.488Z,135.05
2018-03-03T04:38:36.874Z,123.70
2018-03-03T04:41:03.261Z,121.37
2018-03-03T04:43:30.666Z,144.27
2018-03-03T04:45:57.071Z,122.85
2018-03-03T04:48:24.236Z,109.93
2018-03-03T04:50:51.553Z,125.97
2018-03-03T04:53:17.962Z,132.30
2018-03-03T04:55:44.350Z,135.85
2018-03-03T04:58:11.518Z,130.18
2018-03-03T05:00:43.855Z,115.93
2018-03-03T05:03:16.291Z,125.55
2018-03-03T05:08:39.784Z,118.68
2018-03-03T05:11:07.190Z,106.70
2018-03-03T05:13:34.339Z,111.53
2018-03-03T05:16:07.527Z,105.93
2018-03-03T05:18:54.467Z,104.97
2018-03-03T05:21:24.916Z,107.10
2018-03-03T05:23:58.412Z,105.28
2018-03-03T05:26:31.067Z,97.72
2018-03-03T05:29:03.660Z,93.87
2018-03-03T05:31:36.248Z,107.85
2018-03-03T05:37:05.748Z,107.35
2018-03-03T05:39:38.165Z,110.82
2018-03-03T05:42:10.578Z,100.68
2018-03-03T05:44:57.992Z,112.88
2018-03-03T05:47:29.043Z,102.72
2018-03-03T05:50:11.100Z,119.60
2018-03-03T05:52:41.370Z,108.80
2018-03-03T05:55:13.788Z,95.15
2018-03-03T05:57:43.266Z,77.78
2018-03-03T06:00:28.490Z,79.85
2018-03-03T06:03:01.114Z,71.28
2018-03-03T06:05:29.616Z,62.72
2018-03-03T06:07:57.794Z,50.72
2018-03-03T06:10:25.188Z,63.22
2018-03-03T06:12:51.566Z,54.70
2018-03-03T06:15:17.999Z,51.08
2018-03-03T06:17:44.412Z,45.75
2018-03-03T06:20:10.786Z,30.98
2018-03-03T06:22:37.165Z,27.10
2018-03-03T06:25:04.258Z,33.40
2018-03-03T06:27:30.618Z,26.12
2018-03-03T06:29:57.023Z,29.67
2018-03-03T06:32:23.618Z,43.65
2018-03-03T06:34:50.767Z,26.35
2018-03-03T06:37:17.879Z,30.17
2018-03-03T06:39:44.254Z,36.88
2018-03-03T06:42:10.658Z,19.30
2018-03-03T06:44:37.056Z,31.40
2018-03-03T06:47:03.451Z,22.17
2018-03-03T06:49:31.774Z,25.42
2018-03-03T06:51:58.128Z,24.60
2018-03-03T06:54:24.622Z,20.75
2018-03-03T06:56:52.004Z,20.70
2018-03-03T06:59:18.442Z,19.67
2018-03-03T07:01:44.806Z,21.87
2018-03-03T07:04:12.009Z,16.85
2018-03-03T07:06:39.056Z,18.95
2018-03-03T07:09:05.475Z,16.00
2018-03-03T07:11:31.860Z,22.60
2018-03-03T07:13:59.043Z,16.45
2018-03-03T07:16:25.445Z,17.35
2018-03-03T07:18:52.606Z,161.12
2018-03-03T07:21:19.793Z,26.70
2018-03-03T07:23:46.199Z,14.73
2018-03-03T07:26:13.315Z,15.57
2018-03-03T07:28:39.698Z,13.98
2018-03-03T07:31:06.079Z,10.75
2018-03-03T07:33:32.455Z,16.80
2018-03-03T07:35:58.847Z,14.30
2018-03-03T07:38:25.235Z,13.52
2018-03-03T07:40:51.615Z,13.50
2018-03-03T07:43:17.987Z,18.75
2018-03-03T07:45:44.363Z,19.35
2018-03-03T07:48:10.743Z,15.77
2018-03-03T07:50:38.150Z,14.57
2018-03-03T07:53:05.306Z,18.65
2018-03-03T07:55:31.691Z,12.75
2018-03-03T07:57:58.114Z,14.95
2018-03-03T08:00:24.462Z,17.00
2018-03-03T08:02:50.846Z,15.13
2018-03-03T08:05:17.979Z,17.95
2018-03-03T08:07:45.863Z,15.73
2018-03-03T08:10:12.243Z,18.50
2018-03-03T08:12:40.539Z,15.25
2018-03-03T08:15:07.035Z,14.82
2018-03-03T08:17:33.395Z,21.27
2018-03-03T08:19:59.754Z,15.68
2018-03-03T08:22:26.219Z,17.25
2018-03-03T08:24:53.370Z,17.58
2018-03-03T08:27:20.468Z,23.95
2018-03-03T08:29:46.859Z,22.58
2018-03-03T08:32:13.243Z,27.20
2018-03-03T08:34:39.660Z,23.48
2018-03-03T08:37:06.705Z,31.02
2018-03-03T08:39:33.997Z,33.63
2018-03-03T08:42:00.499Z,36.78
2018-03-03T08:44:26.870Z,33.30
2018-03-03T08:46:54.078Z,44.28
2018-03-03T08:49:20.428Z,48.67
2018-03-03T08:51:46.829Z,52.83
2018-03-03T08:54:13.272Z,52.17
2018-03-03T08:56:39.658Z,61.60
2018-03-03T08:59:07.776Z,57.83
2018-03-03T09:01:34.139Z,66.22
2018-03-03T09:04:00.547Z,60.17
2018-03-03T09:06:26.917Z,80.00
2018-03-03T09:08:54.017Z,90.32
2018-03-03T09:11:20.391Z,65.62
2018-03-03T09:13:46.754Z,72.80
2018-03-03T09:16:13.119Z,69.47
2018-03-03T09:18:39.502Z,65.82
2018-03-03T09:21:06.611Z,57.05
2018-03-03T09:23:32.975Z,64.82
2018-03-03T09:26:00.098Z,57.85
2018-03-03T09:28:26.486Z,56.20
2018-03-03T09:30:53.408Z,66.53
2018-03-03T09:33:20.574Z,60.45
2018-03-03T09:35:47.587Z,55.45
2018-03-03T09:38:13.976Z,57.50
2018-03-03T09:40:41.364Z,56.92
2018-03-03T09:43:08.490Z,46.50
2018-03-03T09:45:35.639Z,56.60
2018-03-03T09:48:01.996Z,50.17
2018-03-03T09:50:28.369Z,58.25
2018-03-03T09:52:54.778Z,43.50
2018-03-03T09:55:21.896Z,46.85
2018-03-03T09:57:48.286Z,52.47
2018-03-03T10:00:14.671Z,41.85
2018-03-03T10:02:41.057Z,42.08
2018-03-03T10:05:07.411Z,40.28
2018-03-03T10:07:33.778Z,40.88
2018-03-03T10:10:00.896Z,38.80
2018-03-03T10:12:27.291Z,45.42
2018-03-03T10:14:53.675Z,39.33
2018-03-03T10:17:20.072Z,39.70
2018-03-03T10:19:46.462Z,38.83
2018-03-03T10:22:14.700Z,42.90
2018-03-03T10:24:42.083Z,37.28
2018-03-03T10:27:08.598Z,47.67
2018-03-03T10:29:35.027Z,38.33
2018-03-03T10:32:01.439Z,35.63
2018-03-03T10:34:28.911Z,35.30
2018-03-03T10:36:55.308Z,34.05
2018-03-03T10:39:21.690Z,31.33
2018-03-03T10:41:48.055Z,29.75
2018-03-03T10:44:16.114Z,33.95
2018-03-03T10:46:42.471Z,29.12
2018-03-03T10:49:09.798Z,26.50
2018-03-03T10:51:36.196Z,57.90
2018-03-03T10:54:02.610Z,30.37
2018-03-03T10:56:28.991Z,43.65
2018-03-03T10:58:56.090Z,41.10
2018-03-03T11:01:22.475Z,36.88
2018-03-03T11:03:48.854Z,33.63
2018-03-03T11:06:15.275Z,57.40
2018-03-03T11:08:41.675Z,48.53
2018-03-03T11:11:08.794Z,37.45
2018-03-03T11:13:35.167Z,51.58
2018-03-03T11:16:02.277Z,44.67
2018-03-03T11:18:29.646Z,39.65
2018-03-03T11:20:57.031Z,58.30
2018-03-03T11:23:24.166Z,51.03
2018-03-03T11:25:51.354Z,46.63
2018-03-03T11:28:17.711Z,68.40
2018-03-03T11:30:44.100Z,55.05
2018-03-03T11:33:10.461Z,76.10
2018-03-03T11:35:37.746Z,65.57
2018-03-03T11:38:04.127Z,100.03
2018-03-03T11:40:33.136Z,79.95
2018-03-03T11:42:57.663Z,82.65
2018-03-03T11:45:24.060Z,80.30
2018-03-03T11:47:50.427Z,79.62
2018-03-03T11:50:16.814Z,63.80
2018-03-03T11:52:43.175Z,66.70
2018-03-03T11:55:09.550Z,61.15
2018-03-03T11:57:36.674Z,76.75
2018-03-03T12:00:03.069Z,80.50
2018-03-03T12:02:29.425Z,83.87
2018-03-03T12:04:55.822Z,67.90
2018-03-03T12:07:22.259Z,71.12
2018-03-03T12:09:48.689Z,64.78
2018-03-03T12:12:15.050Z,65.95
2018-03-03T12:14:41.419Z,67.80
2018-03-03T12:17:08.630Z,65.30
2018-03-03T12:19:35.002Z,76.95
2018-03-03T12:22:02.115Z,62.90
2018-03-03T12:24:28.616Z,70.10
2018-03-03T12:26:54.998Z,66.45
2018-03-03T12:29:21.395Z,54.00
2018-03-03T12:31:47.822Z,78.35
2018-03-03T12:34:14.243Z,60.65
2018-03-03T12:36:40.614Z,64.78
2018-03-03T12:39:07.024Z,61.67
2018-03-03T12:41:33.489Z,55.78
2018-03-03T12:43:59.863Z,60.95
2018-03-03T12:46:26.224Z,57.20
2018-03-03T12:48:52.614Z,58.35
2018-03-03T12:51:20.299Z,56.78
2018-03-03T12:53:46.686Z,62.90
2018-03-03T12:56:13.059Z,65.15
2018-03-03T12:58:39.529Z,61.08
2018-03-03T13:01:05.886Z,64.75
2018-03-03T13:03:32.257Z,60.33
2018-03-03T13:06:00.367Z,59.83
2018-03-03T13:08:26.816Z,65.90
2018-03-03T13:10:53.238Z,62.05
2018-03-03T13:13:19.646Z,58.13
2018-03-03T13:15:46.035Z,61.17
2018-03-03T13:18:13.156Z,51.97
2018-03-03T13:20:39.544Z,66.77
2018-03-03T13:23:05.920Z,57.72
2018-03-03T13:25:32.307Z,64.72
2018-03-03T13:27:58.699Z,57.50
2018-03-03T13:30:25.749Z,68.00
2018-03-03T13:32:52.140Z,67.65
2018-03-03T13:35:18.536Z,77.62
2018-03-03T13:37:46.847Z,72.18
2018-03-03T13:40:13.235Z,80.28
2018-03-03T13:42:40.359Z,76.45
2018-03-03T13:45:07.774Z,79.53
2018-03-03T13:47:34.952Z,141.05
2018-03-03T13:50:02.378Z,87.90
2018-03-03T13:52:28.775Z,87.97
2018-03-03T13:54:55.790Z,87.90
2018-03-03T13:57:22.179Z,125.72
2018-03-03T13:59:49.379Z,82.70
2018-03-03T14:02:15.779Z,92.53
2018-03-03T14:04:43.186Z,94.40
2018-03-03T14:07:09.543Z,90.45
2018-03-03T14:09:36.646Z,89.15
2018-03-03T14:12:03.023Z,86.82
2018-03-03T14:14:30.141Z,82.22
2018-03-03T14:16:56.529Z,84.95
2018-03-03T14:19:22.890Z,87.37
2018-03-03T14:21:50.304Z,84.18
2018-03-03T14:24:17.415Z,83.15
2018-03-03T14:26:43.867Z,88.43
2018-03-03T14:29:10.248Z,76.82
2018-03-03T14:31:36.619Z,69.57
2018-03-03T14:34:03.004Z,75.10
2018-03-03T14:36:30.251Z,81.45
2018-03-03T14:38:56.646Z,72.50
2018-03-03T14:41:23.031Z,75.07
2018-03-03T14:43:49.432Z,77.60
2018-03-03T14:46:15.815Z,80.05
2018-03-03T14:48:42.250Z,69.82
2018-03-03T14:51:08.638Z,75.00
2018-03-03T14:53:35.022Z,79.78
2018-03-03T14:56:01.378Z,75.97
2018-03-03T14:58:28.483Z,71.70
2018-03-03T15:00:54.943Z,76.97
2018-03-03T15:03:23.620Z,70.22
2018-03-03T15:05:50.116Z,79.43
2018-03-03T15:08:16.518Z,67.55
2018-03-03T15:10:43.040Z,75.82
2018-03-03T15:13:10.160Z,66.43
2018-03-03T15:15:36.567Z,66.82
2018-03-03T15:18:02.948Z,67.62
2018-03-03T15:20:30.064Z,70.95
2018-03-03T15:22:56.431Z,81.47
2018-03-03T15:25:23.567Z,77.65
2018-03-03T15:27:51.496Z,71.78
2018-03-03T15:30:17.865Z,63.67
2018-03-03T15:32:44.253Z,74.65
2018-03-03T15:35:10.623Z,71.62
2018-03-03T15:37:37.003Z,69.37
2018-03-03T15:40:03.400Z,77.37
2018-03-03T15:42:30.605Z,70.70
2018-03-03T15:44:57.011Z,64.80
2018-03-03T15:47:24.530Z,67.93
2018-03-03T15:49:51.007Z,62.00
2018-03-03T15:52:18.082Z,71.80
2018-03-03T15:54:48.506Z,65.35
2018-03-03T15:57:14.862Z,72.30
2018-03-03T15:59:41.244Z,71.07
2018-03-03T16:02:07.903Z,78.28
2018-03-03T16:04:34.263Z,76.03
2018-03-03T16:07:00.671Z,70.03
2018-03-03T16:09:27.051Z,73.30
2018-03-03T16:11:54.155Z,78.32
2018-03-03T16:14:20.519Z,67.32
2018-03-03T16:16:47.926Z,79.32
2018-03-03T16:19:14.376Z,72.50
2018-03-03T16:21:40.764Z,75.28
2018-03-03T16:24:07.871Z,75.53
2018-03-03T16:26:34.239Z,73.70
2018-03-03T16:29:01.335Z,70.12
2018-03-03T16:31:27.703Z,82.15
2018-03-03T16:33:54.831Z,81.53
2018-03-03T16:36:21.213Z,78.62
2018-03-03T16:38:47.618Z,84.55
2018-03-03T16:41:13.991Z,74.75
2018-03-03T16:43:40.414Z,84.35
2018-03-03T16:46:06.800Z,80.35
2018-03-03T16:48:33.182Z,68.03
2018-03-03T16:50:59.563Z,72.22
2018-03-03T16:53:25.947Z,77.93
2018-03-03T16:55:52.315Z,84.93
2018-03-03T16:58:18.819Z,79.68
2018-03-03T17:00:45.181Z,77.70
2018-03-03T17:03:12.045Z,69.05
2018-03-03T17:05:38.432Z,77.90
2018-03-03T17:08:05.405Z,83.82
2018-03-03T17:10:31.908Z,82.85
2018-03-03T17:12:58.259Z,65.12
2018-03-03T17:15:24.792Z,81.93
2018-03-03T17:17:51.225Z,80.00
2018-03-03T17:20:17.658Z,70.25
2018-03-03T17:22:44.089Z,80.35
2018-03-03T17:25:10.734Z,78.55
2018-03-03T17:27:37.131Z,77.93
2018-03-03T17:30:04.558Z,89.03
2018-03-03T17:32:30.935Z,74.57
2018-03-03T17:34:57.307Z,77.20
2018-03-03T17:37:23.681Z,76.18
2018-03-03T17:39:50.063Z,79.60
2018-03-03T17:42:16.440Z,72.97
2018-03-03T17:44:43.555Z,74.28
2018-03-03T17:47:09.947Z,90.60
2018-03-03T17:49:36.890Z,70.95
2018-03-03T17:52:03.271Z,82.28
2018-03-03T17:54:29.747Z,77.32
2018-03-03T17:56:56.127Z,75.35
2018-03-03T17:59:22.615Z,76.25
2018-03-03T18:01:49.074Z,79.93
2018-03-03T18:04:15.448Z,75.15
2018-03-03T18:06:43.652Z,77.30
2018-03-03T18:09:10.015Z,86.95
2018-03-03T18:11:36.391Z,75.28
2018-03-03T18:14:03.555Z,89.80
2018-03-03T18:16:30.676Z,81.60
2018-03-03T18:19:00.031Z,94.18
2018-03-03T18:21:26.790Z,83.87
2018-03-03T18:23:53.168Z,115.20
2018-03-03T18:26:19.561Z,96.70
2018-03-03T18:28:45.912Z,89.57
2018-03-03T18:31:12.330Z,94.35
2018-03-03T18:33:39.489Z,94.13
2018-03-03T18:36:06.633Z,93.05
2018-03-03T18:38:33.503Z,80.95
2018-03-03T18:41:00.674Z,86.95
2018-03-03T18:43:27.056Z,84.07
2018-03-03T18:45:53.436Z,90.87
2018-03-03T18:48:19.879Z,101.25
2018-03-03T18:50:46.259Z,99.47
2018-03-03T18:53:13.790Z,94.90
2018-03-03T18:55:40.228Z,91.75
2018-03-03T18:58:06.615Z,93.40
2018-03-03T19:00:33.048Z,102.10
2018-03-03T19:03:01.629Z,91.20
2018-03-03T19:05:28.111Z,88.95
2018-03-03T19:07:54.496Z,89.75
2018-03-03T19:10:21.618Z,105.40
2018-03-03T19:12:48.739Z,92.65
2018-03-03T19:15:15.123Z,97.25
2018-03-03T19:17:42.243Z,85.80
2018-03-03T19:20:08.611Z,95.15
2018-03-03T19:22:35.580Z,128.95
2018-03-03T19:25:01.944Z,85.68
2018-03-03T19:27:28.364Z,93.07
2018-03-03T19:29:56.284Z,90.85
2018-03-03T19:32:23.384Z,91.87
2018-03-03T19:34:49.823Z,86.63
2018-03-03T19:37:16.243Z,90.68
2018-03-03T19:39:42.605Z,113.03
2018-03-03T19:42:09.438Z,95.45
2018-03-03T19:44:35.933Z,99.72
2018-03-03T19:47:02.295Z,99.30
2018-03-03T19:49:28.678Z,105.00
2018-03-03T19:51:55.869Z,114.90
2018-03-03T19:54:23.200Z,100.47
2018-03-03T19:56:49.566Z,94.75
2018-03-03T19:59:17.013Z,92.88
2018-03-03T20:01:43.384Z,86.93
2018-03-03T20:04:10.488Z,85.87
2018-03-03T20:06:37.859Z,81.55
2018-03-03T20:09:04.255Z,88.68
2018-03-03T20:11:30.655Z,89.00
2018-03-03T20:13:57.787Z,97.65
2018-03-03T20:16:24.906Z,87.85
2018-03-03T20:18:51.268Z,88.32
2018-03-03T20:21:17.855Z,111.65
2018-03-03T20:23:44.208Z,125.75
2018-03-03T20:26:10.582Z,96.93
2018-03-03T20:28:36.960Z,80.60
2018-03-03T20:31:03.343Z,80.07
2018-03-03T20:33:29.756Z,86.25
2018-03-03T20:35:56.122Z,79.85
2018-03-03T20:38:23.270Z,89.37
2018-03-03T20:40:50.370Z,77.82
2018-03-03T20:43:16.815Z,75.55
2018-03-03T20:45:43.219Z,80.97
2018-03-03T20:48:10.646Z,77.30
2018-03-03T20:50:37.738Z,81.47
2018-03-03T20:53:04.173Z,80.32
2018-03-03T20:55:30.908Z,82.00
2018-03-03T20:57:57.315Z,100.25
2018-03-03T21:00:23.667Z,91.60
2018-03-03T21:02:50.058Z,84.25
2018-03-03T21:05:17.160Z,73.43
2018-03-03T21:07:43.519Z,92.65
2018-03-03T21:10:11.948Z,89.87
2018-03-03T21:12:40.175Z,84.97
2018-03-03T21:15:06.653Z,91.53
2018-03-03T21:17:33.039Z,79.03
2018-03-03T21:20:01.947Z,82.47
2018-03-03T21:22:29.063Z,91.50
2018-03-03T21:24:55.480Z,96.05
2018-03-03T21:27:22.755Z,83.78
2018-03-03T21:29:49.145Z,87.40
2018-03-03T21:32:15.504Z,104.82
2018-03-03T21:34:41.886Z,92.70
2018-03-03T21:37:09.023Z,88.40
2018-03-03T21:39:36.214Z,89.75
2018-03-03T21:42:02.744Z,88.55
2018-03-03T21:44:29.719Z,99.53
2018-03-03T21:46:56.906Z,90.85
2018-03-03T21:49:24.027Z,93.35
2018-03-03T21:51:50.461Z,79.50
2018-03-03T21:54:16.885Z,92.88
2018-03-03T21:56:43.318Z,92.10
2018-03-03T21:59:09.745Z,90.30
2018-03-03T22:01:36.188Z,78.82
2018-03-03T22:04:03.030Z,100.03
2018-03-03T22:06:29.448Z,92.53
2018-03-03T22:08:57.772Z,84.22
2018-03-03T22:11:24.159Z,106.35
2018-03-03T22:13:50.593Z,91.03
2018-03-03T22:16:18.016Z,93.35
2018-03-03T22:18:45.409Z,90.65
2018-03-03T22:21:11.785Z,93.95
2018-03-03T22:23:38.164Z,93.18
2018-03-03T22:26:04.595Z,96.95
2018-03-03T22:28:30.983Z,81.72
2018-03-03T22:30:57.367Z,100.62
2018-03-03T22:33:23.807Z,92.62
2018-03-03T22:35:50.188Z,88.37
2018-03-03T22:38:17.306Z,98.12
2018-03-03T22:40:43.686Z,97.40
2018-03-03T22:43:11.526Z,98.70
2018-03-03T22:45:37.905Z,96.35
2018-03-03T22:48:05.004Z,99.10
2018-03-03T22:50:31.384Z,98.53
2018-03-03T22:52:58.481Z,89.57
2018-03-03T22:55:24.915Z,98.60
2018-03-03T22:57:51.310Z,102.70
2018-03-03T23:00:17.752Z,98.05
2018-03-03T23:02:44.132Z,103.35
2018-03-03T23:05:10.504Z,106.68
2018-03-03T23:07:38.279Z,94.35
2018-03-03T23:10:04.679Z,95.25
2018-03-03T23:12:31.872Z,98.35
2018-03-03T23:14:58.231Z,97.07
2018-03-03T23:17:27.731Z,102.97
2018-03-03T23:19:54.123Z,108.32
2018-03-03T23:22:21.349Z,99.93
2018-03-03T23:24:47.754Z,109.70
2018-03-03T23:27:15.087Z,115.03
2018-03-03T23:29:41.487Z,104.78
2018-03-03T23:32:08.922Z,107.75
2018-03-03T23:34:38.179Z,98.57
2018-03-03T23:37:04.632Z,113.82
2018-03-03T23:39:31.755Z,113.07
2018-03-03T23:41:58.871Z,102.53
2018-03-03T23:44:26.036Z,107.97
2018-03-03T23:46:52.506Z,102.50
2018-03-03T23:49:20.338Z,110.43
2018-03-03T23:51:46.728Z,105.20
2018-03-03T23:54:13.116Z,118.68
2018-03-03T23:56:40.284Z,117.57
2018-03-03T23:59:06.672Z,124.30
